Neosho, MO (64850)

4:42 AM CST on December 05, 2016 (GMT -0600)
| | Change Station

Elev -9999 ft 0.00 °N, 0.00 °E | Updated

Mostly Cloudy
Mostly Cloudy
32 °F
Feels Like 28 °F
N
4
Wind Variable Wind from SE
Gusts mph

Today
High -- | Low -- °F
--% Chance of Precip.
Yesterday
High -- | Low -- °F
Precip. -- in
Pressure 29.99 in
Visibility 10.0 miles
Clouds Clear
Windchill 28 °F
Dew Point 31 °F
Humidity 94%
Rainfall --
Snow Depth Not available.
7:15 AM 5:00 PM
Waxing Crescent, 30% visible
METAR KHFJ 051010Z AUTO 13005KT 10SM CLR 00/00 A2999 RMK AO2
Pressure 29.99 in
Visibility 10.0 miles
Clouds Clear
Windchill 28 °F
Dew Point 31 °F
Humidity 94%
Rainfall --
Snow Depth Not available.
7:15 AM 5:00 PM
Waxing Crescent, 30% visible
METAR KHFJ 051010Z AUTO 13005KT 10SM CLR 00/00 A2999 RMK AO2

10-Day Weather Forecast

Almanac

Astronomy

Dec. 05, 2016 Rise Set
Actual Time
Civil Twilight
Nautical Twilight
Astronomical Twilight
Moon
Length of Visible Light
Length of Day
Tomorrow will be .
, % of the Moon is Illuminated

Today's Extremes

State Highs State Lows

Community

WunderPhotos

Upload Photos

1,955,777 photos uploaded!

WunderBlog® & News

Nearby

Air Quality

  Air Quality AQ Index Pollutant
Not available.

Snow Depth

Station Depth Elevation

Earthquake Activity

City Distance Mag. Time & Date
Minimum magnitude displayed is 2.5.

Coastal Water Temperatures

Place Temperature

Stations

Nearby Weather Stations

Station Location Temp. Windchill Dew Point Humidity Wind Precip. Elev Updated Type
                   

Watches & Warnings

There are currently no watches in effect.